Time;durP1;ratioP1;P1;durP2;ratioP2;P2;SDS_P1;SDS_P2;PMS_P1;PMS_P2;Temp;Humidity;BMP_temperature;BMP_pressure;BME280_temperature;BME280_humidity;BME280_pressure;Samples;Min_cycle;Max_cycle;Signal;HPM_P1;HPM_P2
2022/04/03 00:00:37;;;;;;;4.82;4.07;;;3.90;23.40;;;;;;4939146;29;20394;-76
2022/04/03 00:03:04;;;;;;;4.90;4.20;;;3.80;23.70;;;;;;4956226;28;20430;-76
2022/04/03 00:05:33;;;;;;;6.97;3.80;;;3.90;23.60;;;;;;4959099;28;20394;-75
2022/04/03 00:07:59;;;;;;;5.37;4.10;;;4.00;23.40;;;;;;4957430;29;20780;-75
2022/04/03 00:10:24;;;;;;;5.55;3.60;;;4.00;23.20;;;;;;4955909;29;20390;-76
2022/04/03 00:12:55;;;;;;;7.57;3.87;;;4.00;23.10;;;;;;4956094;28;20474;-76
2022/04/03 00:15:21;;;;;;;5.03;3.70;;;3.90;23.40;;;;;;4956258;29;20744;-75
2022/04/03 00:17:47;;;;;;;4.70;3.73;;;3.80;23.50;;;;;;4939281;29;20406;-76
2022/04/03 00:20:14;;;;;;;6.40;3.92;;;3.80;23.90;;;;;;4957575;29;20603;-77
2022/04/03 00:22:40;;;;;;;4.45;3.80;;;3.80;24.00;;;;;;4956526;28;20400;-76
2022/04/03 00:25:06;;;;;;;4.85;3.47;;;3.80;23.90;;;;;;4957258;29;20401;-76
2022/04/03 00:27:31;;;;;;;6.07;3.85;;;3.70;24.20;;;;;;4957956;29;20398;-76
2022/04/03 00:29:57;;;;;;;5.38;3.65;;;3.70;24.50;;;;;;4960154;29;20394;-75
2022/04/03 00:32:23;;;;;;;8.60;4.05;;;3.60;24.50;;;;;;4958052;28;20903;-77
2022/04/03 00:34:49;;;;;;;4.70;3.63;;;3.60;24.80;;;;;;4945242;29;20394;-76
2022/04/03 00:37:15;;;;;;;5.50;3.50;;;3.60;25.50;;;;;;4971470;29;21266;-75
2022/04/03 00:39:40;;;;;;;4.70;3.92;;;3.60;25.30;;;;;;4967213;29;20449;-76
2022/04/03 00:42:08;;;;;;;5.68;3.92;;;3.60;25.00;;;;;;4956952;29;20878;-76
2022/04/03 00:44:35;;;;;;;5.20;3.40;;;3.70;24.90;;;;;;4957171;28;20390;-75
2022/04/03 00:47:01;;;;;;;6.80;4.00;;;3.60;25.00;;;;;;4939173;29;20480;-76
2022/04/03 00:49:27;;;;;;;6.68;3.85;;;3.70;25.30;;;;;;4956038;29;20429;-77
2022/04/03 00:51:53;;;;;;;7.97;4.00;;;3.60;25.50;;;;;;4955774;29;20390;-76
2022/04/03 00:54:19;;;;;;;12.87;3.80;;;3.60;25.70;;;;;;4944194;28;20830;-75
2022/04/03 00:56:45;;;;;;;4.22;3.75;;;3.60;25.50;;;;;;4936916;29;20445;-75
2022/04/03 00:59:14;;;;;;;7.07;3.20;;;3.70;25.40;;;;;;4936357;29;20419;-75
2022/04/03 01:01:41;;;;;;;5.65;4.10;;;3.70;25.40;;;;;;4936300;29;20454;-76
2022/04/03 01:04:07;;;;;;;8.48;3.63;;;3.70;25.10;;;;;;4935172;29;20478;-75
2022/04/03 01:06:33;;;;;;;7.03;3.58;;;3.70;24.80;;;;;;4936280;29;20797;-77
2022/04/03 01:08:59;;;;;;;5.38;3.60;;;3.60;25.00;;;;;;4940455;29;20399;-74
2022/04/03 01:11:25;;;;;;;4.20;3.53;;;3.60;25.20;;;;;;4944122;29;20399;-75
2022/04/03 01:13:51;;;;;;;6.18;3.50;;;3.50;25.30;;;;;;4944353;29;20419;-75
2022/04/03 01:16:18;;;;;;;4.90;3.63;;;3.40;25.90;;;;;;4944073;29;20466;-75
2022/04/03 01:18:43;;;;;;;6.25;3.65;;;3.40;25.90;;;;;;4943894;29;20402;-75
2022/04/03 01:21:09;;;;;;;5.00;3.27;;;3.40;26.00;;;;;;4944173;29;20441;-74
2022/04/03 01:23:35;;;;;;;7.90;4.10;;;3.40;26.40;;;;;;4937516;29;20462;-75
2022/04/03 01:26:00;;;;;;;5.47;4.07;;;3.40;26.00;;;;;;4935379;29;20441;-75
2022/04/03 01:28:26;;;;;;;5.00;3.20;;;3.40;26.50;;;;;;4935517;29;20400;-75
2022/04/03 01:30:51;;;;;;;5.83;3.40;;;3.50;26.20;;;;;;4934810;29;20451;-76
2022/04/03 01:33:17;;;;;;;3.93;3.53;;;3.50;25.50;;;;;;4935348;29;20962;-75
2022/04/03 01:35:44;;;;;;;9.32;3.80;;;3.30;25.80;;;;;;4935148;29;20809;-74
2022/04/03 01:38:10;;;;;;;6.57;3.80;;;3.30;26.20;;;;;;4938511;29;20777;-75
2022/04/03 01:40:36;;;;;;;7.05;3.70;;;3.20;27.00;;;;;;4938223;29;20403;-75
2022/04/03 01:43:03;;;;;;;6.97;3.90;;;3.10;27.80;;;;;;4937183;29;20399;-75
2022/04/03 01:45:29;;;;;;;7.50;4.20;;;3.20;27.50;;;;;;4940603;29;20398;-77
2022/04/03 01:47:55;;;;;;;6.57;4.20;;;3.10;27.50;;;;;;4939383;29;20391;-75
2022/04/03 01:50:20;;;;;;;5.80;4.45;;;3.10;27.80;;;;;;4938370;29;20474;-76
2022/04/03 01:52:46;;;;;;;7.30;3.93;;;3.10;27.50;;;;;;4935569;29;20408;-74
2022/04/03 01:55:12;;;;;;;4.97;4.10;;;3.00;28.30;;;;;;4953796;29;20418;-75
2022/04/03 01:57:38;;;;;;;6.82;3.83;;;3.00;28.40;;;;;;4953758;29;20389;-75
2022/04/03 02:00:10;;;;;;;7.40;3.70;;;3.10;28.00;;;;;;4953281;29;20401;-75
2022/04/03 02:02:38;;;;;;;7.95;4.70;;;3.10;28.30;;;;;;4936176;28;20488;-75
2022/04/03 02:05:08;;;;;;;6.05;4.13;;;3.10;28.40;;;;;;4953521;29;20441;-74
2022/04/03 02:07:34;;;;;;;8.98;4.10;;;3.00;29.10;;;;;;4953639;29;20402;-75
2022/04/03 02:10:00;;;;;;;7.78;4.45;;;3.10;28.80;;;;;;4953617;29;20936;-74
2022/04/03 02:12:26;;;;;;;8.43;3.88;;;3.10;29.00;;;;;;4953711;28;20760;-75
2022/04/03 02:14:52;;;;;;;6.50;4.60;;;3.10;28.60;;;;;;4953513;29;20394;-75
2022/04/03 02:17:18;;;;;;;4.93;4.30;;;3.10;28.20;;;;;;4953669;29;20402;-75
2022/04/03 02:19:43;;;;;;;4.50;4.10;;;3.10;28.60;;;;;;4953411;29;20401;-76
2022/04/03 02:22:09;;;;;;;6.00;4.30;;;3.00;28.40;;;;;;4953426;29;20393;-75
2022/04/03 02:24:35;;;;;;;6.93;4.43;;;3.00;28.60;;;;;;4953319;28;20477;-75
2022/04/03 02:27:00;;;;;;;6.70;4.13;;;3.00;28.50;;;;;;4952980;29;20427;-75
2022/04/03 02:29:26;;;;;;;7.13;4.70;;;3.00;28.30;;;;;;4953350;29;20763;-75
2022/04/03 02:31:52;;;;;;;7.30;4.40;;;2.90;28.90;;;;;;4953976;29;20761;-75
2022/04/03 02:34:17;;;;;;;7.93;4.90;;;3.00;28.20;;;;;;4954105;28;20417;-75
2022/04/03 02:36:43;;;;;;;8.02;5.03;;;3.00;28.20;;;;;;4953867;29;20413;-76
2022/04/03 02:39:10;;;;;;;7.30;4.75;;;3.00;28.90;;;;;;4954665;29;20402;-77
2022/04/03 02:41:36;;;;;;;10.15;4.82;;;3.00;28.40;;;;;;4953595;29;20397;-75
2022/04/03 02:44:03;;;;;;;9.82;4.47;;;3.10;27.70;;;;;;4953947;28;20389;-75
2022/04/03 02:46:30;;;;;;;7.65;4.60;;;3.10;27.80;;;;;;4953291;29;20409;-76
2022/04/03 02:48:56;;;;;;;6.28;4.50;;;3.10;26.70;;;;;;4953027;29;20933;-76
2022/04/03 02:51:21;;;;;;;6.90;4.60;;;3.00;27.00;;;;;;4953222;29;20483;-76
2022/04/03 02:53:47;;;;;;;8.95;5.18;;;3.00;26.90;;;;;;4945099;28;20861;-76
2022/04/03 02:56:13;;;;;;;6.35;4.53;;;3.00;27.30;;;;;;4934269;29;20411;-75
2022/04/03 02:58:40;;;;;;;5.63;4.82;;;2.90;27.10;;;;;;4934196;29;20734;-75
2022/04/03 03:01:06;;;;;;;9.05;4.68;;;2.90;27.60;;;;;;4934805;29;20818;-75
2022/04/03 03:03:31;;;;;;;6.83;5.10;;;2.90;27.10;;;;;;4941748;29;20453;-75
2022/04/03 03:05:57;;;;;;;6.90;4.60;;;2.90;27.40;;;;;;4945767;29;20407;-75
2022/04/03 03:08:22;;;;;;;7.65;5.00;;;2.90;27.10;;;;;;4944441;29;20454;-74
2022/04/03 03:10:48;;;;;;;5.17;4.17;;;2.80;27.20;;;;;;4942994;29;20398;-75
2022/04/03 03:13:14;;;;;;;8.90;4.50;;;2.70;27.40;;;;;;4939601;29;20379;-75
2022/04/03 03:15:39;;;;;;;8.80;5.50;;;2.70;27.80;;;;;;4936423;29;20403;-76
2022/04/03 03:18:05;;;;;;;7.82;5.20;;;2.60;28.20;;;;;;4935701;29;20430;-75
2022/04/03 03:20:31;;;;;;;10.30;5.10;;;2.50;29.00;;;;;;4936677;29;20391;-75
2022/04/03 03:22:57;;;;;;;7.53;4.38;;;2.40;29.80;;;;;;4938977;29;20443;-75
2022/04/03 03:25:22;;;;;;;10.53;4.90;;;2.50;29.40;;;;;;4935161;29;20403;-75
2022/04/03 03:27:49;;;;;;;5.17;4.60;;;2.40;29.70;;;;;;4934433;29;20407;-76
2022/04/03 03:30:14;;;;;;;6.38;4.82;;;2.40;30.20;;;;;;4935237;29;20817;-76
2022/04/03 03:32:40;;;;;;;4.95;4.35;;;2.30;29.90;;;;;;4935283;29;20482;-76
2022/04/03 03:35:06;;;;;;;8.50;5.20;;;2.20;29.20;;;;;;4935775;29;20421;-76
2022/04/03 03:37:32;;;;;;;7.95;4.80;;;2.10;29.40;;;;;;4935037;29;20392;-76
2022/04/03 03:39:58;;;;;;;5.80;4.90;;;2.10;29.80;;;;;;4937009;29;20402;-76
2022/04/03 03:42:23;;;;;;;9.40;4.90;;;2.00;30.10;;;;;;4938217;29;20391;-75
2022/04/03 03:44:49;;;;;;;7.90;4.90;;;1.90;30.80;;;;;;4938600;29;20838;-75
2022/04/03 03:47:15;;;;;;;6.10;4.60;;;1.90;31.00;;;;;;4937683;29;20454;-75
2022/04/03 03:49:40;;;;;;;8.35;5.00;;;1.80;31.30;;;;;;4936898;29;20960;-75
2022/04/03 03:52:06;;;;;;;10.55;5.00;;;1.80;31.70;;;;;;4939327;29;20439;-75
2022/04/03 03:54:32;;;;;;;9.48;5.22;;;1.80;31.40;;;;;;4950696;29;20402;-76
2022/04/03 03:56:59;;;;;;;9.70;5.28;;;1.80;31.70;;;;;;4956017;29;20946;-74
2022/04/03 03:59:25;;;;;;;8.60;4.90;;;1.80;32.20;;;;;;4938795;29;20415;-73
2022/04/03 04:01:51;;;;;;;8.57;5.20;;;1.70;31.80;;;;;;4955393;29;20542;-75
2022/04/03 04:04:16;;;;;;;7.70;4.90;;;1.70;32.10;;;;;;4938734;29;20442;-74
2022/04/03 04:06:42;;;;;;;8.20;5.32;;;1.60;32.80;;;;;;4955809;29;20394;-75
2022/04/03 04:09:07;;;;;;;8.13;4.72;;;1.50;33.60;;;;;;4955450;29;20812;-75
2022/04/03 04:11:34;;;;;;;7.40;5.20;;;1.40;34.10;;;;;;4955567;29;20402;-75
2022/04/03 04:14:00;;;;;;;9.85;5.20;;;1.40;34.70;;;;;;4955464;28;20465;-75
2022/04/03 04:16:25;;;;;;;6.10;4.80;;;1.40;34.70;;;;;;4955890;29;20900;-74
2022/04/03 04:18:51;;;;;;;9.13;5.30;;;1.40;34.80;;;;;;4938572;29;20429;-74
2022/04/03 04:21:17;;;;;;;6.23;4.80;;;1.40;35.60;;;;;;4955331;29;20390;-75
2022/04/03 04:23:43;;;;;;;14.25;6.50;;;1.40;34.90;;;;;;4955685;28;20887;-75
2022/04/03 04:26:09;;;;;;;7.80;5.47;;;1.30;35.30;;;;;;4955311;29;20469;-75
2022/04/03 04:28:35;;;;;;;8.20;5.18;;;1.00;36.30;;;;;;4938160;29;20404;-75
2022/04/03 04:31:01;;;;;;;10.43;5.60;;;0.90;37.80;;;;;;4955381;29;20403;-75
2022/04/03 04:33:26;;;;;;;7.60;4.90;;;1.00;37.20;;;;;;4961003;28;20456;-76
2022/04/03 04:35:52;;;;;;;5.70;4.40;;;1.20;36.80;;;;;;4959012;29;20448;-74
2022/04/03 04:38:18;;;;;;;9.52;5.20;;;1.20;36.50;;;;;;4940694;29;20394;-76
2022/04/03 04:40:44;;;;;;;7.03;5.00;;;1.10;36.60;;;;;;4959901;29;20386;-75
2022/04/03 04:43:10;;;;;;;6.57;5.30;;;1.00;36.90;;;;;;4939920;29;20398;-76
2022/04/03 04:45:36;;;;;;;9.80;5.15;;;0.80;37.70;;;;;;4955172;29;20854;-76
2022/04/03 04:48:02;;;;;;;10.02;5.55;;;0.60;39.70;;;;;;4955147;29;20426;-74
2022/04/03 04:50:29;;;;;;;8.02;5.35;;;0.70;40.20;;;;;;4954814;28;20386;-75
2022/04/03 04:52:59;;;;;;;11.38;5.20;;;0.60;39.90;;;;;;4953526;28;20433;-75
2022/04/03 04:55:25;;;;;;;6.50;5.00;;;0.60;40.40;;;;;;4935924;29;20426;-75
2022/04/03 04:57:56;;;;;;;9.93;5.60;;;0.60;40.80;;;;;;4936211;29;20458;-75
2022/04/03 05:00:24;;;;;;;8.30;5.60;;;0.40;42.30;;;;;;4936105;29;20474;-75
2022/04/03 05:02:50;;;;;;;10.57;5.95;;;0.30;42.50;;;;;;4935531;29;20391;-75
2022/04/03 05:05:20;;;;;;;13.05;5.18;;;0.10;44.40;;;;;;4934340;29;20391;-75
2022/04/03 05:07:47;;;;;;;8.00;4.83;;;0.30;43.60;;;;;;4934148;29;20466;-75
2022/04/03 05:10:15;;;;;;;9.32;5.82;;;0.50;42.20;;;;;;4935661;29;20400;-76
2022/04/03 05:12:41;;;;;;;8.48;5.55;;;0.60;40.80;;;;;;4934989;29;20399;-75
2022/04/03 05:15:10;;;;;;;7.90;5.18;;;0.70;39.40;;;;;;4935004;29;20420;-75
2022/04/03 05:17:36;;;;;;;8.25;5.82;;;0.80;39.40;;;;;;4935438;29;20387;-75
2022/04/03 05:20:03;;;;;;;6.65;5.30;;;0.90;38.70;;;;;;4935105;29;20392;-76
2022/04/03 05:22:29;;;;;;;6.95;5.70;;;0.90;38.20;;;;;;4934821;29;20581;-75
2022/04/03 05:24:55;;;;;;;6.60;4.90;;;0.80;38.90;;;;;;4935408;29;20853;-75
2022/04/03 05:27:21;;;;;;;8.32;5.43;;;0.90;37.90;;;;;;4934918;29;20430;-76
2022/04/03 05:29:47;;;;;;;7.78;5.18;;;0.90;38.30;;;;;;4935076;29;20474;-75
2022/04/03 05:32:13;;;;;;;10.20;5.30;;;1.00;37.20;;;;;;4934761;29;20882;-75
2022/04/03 05:34:39;;;;;;;8.50;5.50;;;1.00;37.80;;;;;;4934682;29;20408;-77
2022/04/03 05:37:05;;;;;;;7.57;6.07;;;1.10;37.80;;;;;;4934655;29;20416;-75
2022/04/03 05:39:31;;;;;;;10.43;5.90;;;1.00;38.10;;;;;;4934762;29;20940;-74
2022/04/03 05:41:57;;;;;;;9.30;6.20;;;0.90;38.50;;;;;;4934769;29;20486;-74
2022/04/03 05:44:23;;;;;;;13.33;6.20;;;0.90;38.80;;;;;;4935225;29;20444;-75
2022/04/03 05:46:50;;;;;;;8.73;6.20;;;1.00;38.40;;;;;;4935708;29;20760;-74
2022/04/03 05:49:16;;;;;;;9.13;6.32;;;1.00;39.20;;;;;;4941297;29;20407;-73
2022/04/03 05:51:42;;;;;;;10.25;5.60;;;1.10;38.80;;;;;;4940792;29;20467;-73
2022/04/03 05:54:08;;;;;;;9.48;5.88;;;1.10;38.60;;;;;;4953280;29;20421;-74
2022/04/03 05:56:34;;;;;;;14.48;6.35;;;1.20;38.50;;;;;;4962727;29;20425;-75
2022/04/03 05:59:00;;;;;;;10.70;6.05;;;1.20;38.30;;;;;;4960053;29;20396;-75
2022/04/03 06:01:25;;;;;;;8.53;6.03;;;1.30;38.40;;;;;;4961558;28;20390;-73
2022/04/03 06:03:51;;;;;;;9.03;6.00;;;1.20;38.50;;;;;;4964819;28;20946;-74
2022/04/03 06:06:17;;;;;;;17.55;6.88;;;1.20;39.00;;;;;;4967975;29;20440;-75
2022/04/03 06:08:43;;;;;;;11.10;6.30;;;1.40;38.70;;;;;;4961486;29;20401;-76
2022/04/03 06:11:08;;;;;;;10.50;6.60;;;1.40;37.70;;;;;;4955242;29;20401;-77
2022/04/03 06:13:34;;;;;;;11.40;6.60;;;1.40;37.30;;;;;;4960238;28;20417;-74
2022/04/03 06:16:00;;;;;;;11.13;6.00;;;1.50;37.10;;;;;;4967856;29;20421;-74
2022/04/03 06:18:26;;;;;;;11.55;6.93;;;1.60;36.30;;;;;;4968092;29;20394;-73
2022/04/03 06:20:52;;;;;;;11.77;6.05;;;1.60;35.30;;;;;;4967624;29;20409;-75
2022/04/03 06:23:20;;;;;;;9.60;6.30;;;1.70;35.60;;;;;;4968855;28;20472;-75
2022/04/03 06:25:46;;;;;;;11.70;6.72;;;1.70;36.30;;;;;;4966265;29;20390;-75
2022/04/03 06:28:12;;;;;;;8.38;6.40;;;1.60;36.30;;;;;;4954656;29;20402;-75
2022/04/03 06:30:38;;;;;;;10.77;6.72;;;1.90;34.10;;;;;;4953861;29;20461;-75
2022/04/03 06:33:04;;;;;;;10.20;6.63;;;1.90;33.40;;;;;;4953614;28;20421;-75
2022/04/03 06:35:30;;;;;;;10.77;6.40;;;2.00;32.90;;;;;;4953699;29;20826;-76
2022/04/03 06:37:56;;;;;;;10.33;6.33;;;2.10;32.40;;;;;;4953763;29;20910;-75
2022/04/03 06:40:23;;;;;;;11.38;6.13;;;2.10;32.10;;;;;;4953714;29;20747;-74
2022/04/03 06:42:49;;;;;;;9.95;6.40;;;2.20;31.70;;;;;;4936098;29;20402;-76
2022/04/03 06:45:15;;;;;;;11.65;6.15;;;2.30;31.10;;;;;;4949924;29;20405;-75
2022/04/03 06:47:41;;;;;;;13.90;6.55;;;2.40;31.10;;;;;;4969307;29;20490;-75
2022/04/03 06:50:08;;;;;;;10.32;6.03;;;2.40;30.90;;;;;;4961310;29;20440;-75
2022/04/03 06:52:34;;;;;;;10.32;6.05;;;2.50;30.80;;;;;;4959897;28;20477;-74
2022/04/03 06:55:00;;;;;;;6.78;5.40;;;2.60;30.50;;;;;;4942534;29;20404;-74
2022/04/03 06:57:25;;;;;;;8.15;5.40;;;2.60;30.30;;;;;;4941624;29;20402;-75
2022/04/03 06:59:51;;;;;;;7.50;5.50;;;2.60;29.60;;;;;;4935018;29;20936;-76
2022/04/03 07:02:16;;;;;;;7.73;5.20;;;2.70;27.70;;;;;;4933995;29;20446;-75
2022/04/03 07:04:42;;;;;;;7.82;4.57;;;2.70;26.90;;;;;;4933698;29;20765;-75
2022/04/03 07:07:08;;;;;;;12.75;5.20;;;2.80;25.50;;;;;;4932733;29;20789;-75
2022/04/03 07:09:41;;;;;;;9.10;4.60;;;2.80;25.30;;;;;;4936643;29;20392;-75
2022/04/03 07:12:08;;;;;;;6.57;4.82;;;2.80;25.20;;;;;;4937424;29;20478;-76
2022/04/03 07:14:33;;;;;;;6.90;4.77;;;2.80;25.60;;;;;;4938680;29;20399;-75
2022/04/03 07:16:59;;;;;;;12.60;5.00;;;3.00;25.10;;;;;;4937651;29;20477;-76
2022/04/03 07:19:25;;;;;;;6.25;4.25;;;3.10;24.80;;;;;;4938508;29;20889;-76
2022/04/03 07:21:50;;;;;;;8.83;4.57;;;3.20;24.50;;;;;;4939583;29;20391;-76
2022/04/03 07:24:17;;;;;;;7.15;5.03;;;3.30;23.90;;;;;;4940666;29;20387;-75
2022/04/03 07:26:43;;;;;;;7.05;4.60;;;3.50;23.60;;;;;;4937229;29;20774;-74
2022/04/03 07:29:09;;;;;;;8.18;4.35;;;3.60;22.90;;;;;;4941361;29;20403;-76
2022/04/03 07:31:34;;;;;;;5.53;4.30;;;3.70;22.60;;;;;;4942433;29;20403;-76
2022/04/03 07:34:00;;;;;;;9.25;4.68;;;3.70;22.60;;;;;;4941468;29;20492;-75
2022/04/03 07:36:26;;;;;;;8.50;5.20;;;3.80;22.10;;;;;;4944476;29;20458;-76
2022/04/03 07:38:52;;;;;;;7.50;4.50;;;3.80;21.20;;;;;;4944323;29;20869;-76
2022/04/03 07:41:19;;;;;;;6.00;3.72;;;4.00;21.70;;;;;;4938735;29;20396;-75
2022/04/03 07:43:45;;;;;;;8.85;3.58;;;4.10;20.60;;;;;;4938332;29;20761;-76
2022/04/03 07:46:16;;;;;;;7.37;3.80;;;4.20;19.10;;;;;;4938430;29;20399;-76
2022/04/03 07:48:45;;;;;;;5.40;3.63;;;4.20;19.40;;;;;;4938730;28;20419;-76
2022/04/03 07:51:11;;;;;;;3.80;2.70;;;4.30;19.60;;;;;;4936886;29;20442;-76
2022/04/03 07:53:37;;;;;;;6.70;3.20;;;4.50;18.10;;;;;;4944509;29;20406;-74
2022/04/03 07:56:05;;;;;;;6.90;2.70;;;4.60;17.30;;;;;;4945902;29;20421;-76
2022/04/03 07:58:32;;;;;;;5.03;2.90;;;4.60;17.10;;;;;;4961706;29;20413;-75
2022/04/03 08:00:57;;;;;;;4.53;2.90;;;4.70;17.30;;;;;;4958979;29;20404;-75
2022/04/03 08:03:23;;;;;;;5.00;2.93;;;4.70;17.10;;;;;;4957110;28;20398;-75
2022/04/03 08:05:49;;;;;;;5.67;2.90;;;4.70;17.50;;;;;;4957043;29;20410;-75
2022/04/03 08:08:14;;;;;;;7.30;3.30;;;4.70;18.00;;;;;;4957041;29;20430;-75
2022/04/03 08:10:40;;;;;;;4.28;2.33;;;4.70;18.20;;;;;;4959132;29;20386;-75
2022/04/03 08:13:06;;;;;;;3.95;2.40;;;4.90;18.20;;;;;;4938080;29;20425;-75
2022/04/03 08:15:31;;;;;;;4.45;2.58;;;4.80;17.30;;;;;;4955688;29;20694;-75
2022/04/03 08:17:57;;;;;;;8.03;2.83;;;4.80;18.10;;;;;;4955894;29;20397;-75
2022/04/03 08:20:22;;;;;;;5.88;2.85;;;4.90;17.80;;;;;;4955323;29;20382;-75
2022/04/03 08:22:49;;;;;;;4.70;2.50;;;4.90;17.80;;;;;;4955265;28;20398;-75
2022/04/03 08:25:16;;;;;;;7.68;2.92;;;5.10;17.20;;;;;;4954743;28;20402;-75
2022/04/03 08:27:48;;;;;;;3.85;2.30;;;5.30;17.80;;;;;;4955411;29;20867;-75
2022/04/03 08:30:17;;;;;;;3.53;2.40;;;5.30;16.60;;;;;;4955102;29;20390;-75
2022/04/03 08:32:43;;;;;;;8.38;2.78;;;5.30;16.40;;;;;;4955996;28;20390;-76
2022/04/03 08:35:10;;;;;;;3.35;2.10;;;5.30;16.90;;;;;;4956253;29;20558;-75
2022/04/03 08:37:35;;;;;;;6.00;2.50;;;5.20;15.10;;;;;;4955323;29;20382;-74
2022/04/03 08:40:03;;;;;;;9.18;3.78;;;5.30;15.60;;;;;;4956353;29;20402;-74
2022/04/03 08:42:29;;;;;;;7.32;4.60;;;5.40;16.30;;;;;;4963817;28;20791;-75
2022/04/03 08:44:55;;;;;;;10.50;4.60;;;5.40;17.50;;;;;;4970062;29;20389;-76
2022/04/03 08:47:24;;;;;;;12.65;5.10;;;5.50;16.30;;;;;;4971035;29;20390;-74
2022/04/03 08:49:50;;;;;;;15.47;5.33;;;5.60;16.70;;;;;;4941348;29;20402;-75
2022/04/03 08:52:15;;;;;;;10.63;4.72;;;5.50;17.30;;;;;;4954414;29;20938;-74
2022/04/03 08:54:43;;;;;;;10.90;5.80;;;5.60;16.70;;;;;;4939123;29;20428;-74
2022/04/03 08:57:08;;;;;;;9.93;4.68;;;5.80;17.00;;;;;;4935425;29;20467;-75
2022/04/03 08:59:37;;;;;;;7.50;4.00;;;5.80;15.30;;;;;;4936159;29;20428;-75
2022/04/03 09:02:03;;;;;;;7.55;3.80;;;6.00;13.80;;;;;;4935348;29;20463;-75
2022/04/03 09:04:31;;;;;;;8.68;3.70;;;6.10;13.40;;;;;;4935629;29;20890;-76
2022/04/03 09:06:59;;;;;;;6.13;3.28;;;6.20;10.90;;;;;;4935497;29;20486;-75
2022/04/03 09:09:26;;;;;;;8.30;3.35;;;6.20;11.60;;;;;;4935495;29;20410;-76
2022/04/03 09:12:12;;;;;;;5.65;3.30;;;6.20;11.90;;;;;;4936141;29;20460;-76
2022/04/03 09:14:55;;;;;;;5.40;3.40;;;6.50;11.70;;;;;;4935591;29;20963;-75
2022/04/03 09:17:42;;;;;;;8.27;3.83;;;6.60;12.20;;;;;;4935064;29;20392;-74
2022/04/03 09:20:10;;;;;;;8.15;4.30;;;6.80;12.70;;;;;;4935100;29;20394;-75
2022/04/03 09:22:37;;;;;;;6.50;3.70;;;7.30;9.90;;;;;;4935050;29;20398;-74
2022/04/03 09:25:09;;;;;;;9.70;4.00;;;7.60;9.80;;;;;;4935332;29;20881;-75
2022/04/03 09:27:41;;;;;;;7.78;4.60;;;7.30;11.10;;;;;;4935310;29;20410;-74
2022/04/03 09:30:07;;;;;;;8.45;4.70;;;7.10;10.70;;;;;;4934886;29;20404;-75
2022/04/03 09:32:34;;;;;;;5.05;3.60;;;7.10;10.90;;;;;;4934954;29;20383;-75
2022/04/03 09:35:00;;;;;;;8.35;4.53;;;7.20;10.30;;;;;;4935550;29;20422;-75
2022/04/03 09:37:27;;;;;;;8.20;4.40;;;7.00;10.70;;;;;;4934867;29;20425;-76
2022/04/03 09:39:53;;;;;;;5.80;4.00;;;6.80;11.30;;;;;;4935343;29;20810;-75
2022/04/03 09:42:19;;;;;;;8.95;3.63;;;6.60;12.60;;;;;;4935416;29;20399;-76
2022/04/03 09:44:49;;;;;;;5.50;3.37;;;6.70;12.80;;;;;;4935588;29;20400;-75
2022/04/03 09:47:26;;;;;;;5.93;3.80;;;6.60;13.30;;;;;;4936652;29;20718;-74
2022/04/03 09:49:57;;;;;;;4.78;3.15;;;6.60;13.20;;;;;;4941500;29;20758;-74
2022/04/03 09:52:42;;;;;;;4.60;3.30;;;6.60;13.30;;;;;;4942006;29;20396;-75
2022/04/03 09:55:18;;;;;;;4.10;2.65;;;6.60;13.30;;;;;;4938950;29;20535;-75
2022/04/03 09:57:49;;;;;;;6.25;3.03;;;6.80;13.50;;;;;;4938935;29;20422;-76
2022/04/03 10:00:30;;;;;;;7.10;2.72;;;6.90;13.40;;;;;;4937536;29;20411;-76
2022/04/03 10:02:59;;;;;;;7.27;3.70;;;6.80;13.30;;;;;;4939801;29;20395;-76
2022/04/03 10:05:25;;;;;;;9.93;3.80;;;6.70;14.10;;;;;;4938675;29;20494;-76
2022/04/03 10:07:51;;;;;;;4.57;3.40;;;6.80;13.60;;;;;;4936767;29;20396;-76
2022/04/03 10:10:17;;;;;;;5.13;3.22;;;7.00;13.40;;;;;;4937656;29;20877;-76
2022/04/03 10:12:42;;;;;;;3.90;3.13;;;7.00;13.30;;;;;;4935541;29;20381;-76
2022/04/03 10:15:08;;;;;;;5.90;2.83;;;6.90;13.00;;;;;;4939192;29;20431;-76
2022/04/03 10:17:34;;;;;;;5.25;3.10;;;6.80;13.60;;;;;;4941538;29;20466;-76
2022/04/03 10:20:00;;;;;;;7.05;3.35;;;6.80;13.60;;;;;;4940338;29;20400;-76
2022/04/03 10:22:33;;;;;;;5.05;3.30;;;6.90;13.50;;;;;;4937695;29;20399;-76
2022/04/03 10:25:04;;;;;;;7.53;3.10;;;7.10;13.90;;;;;;4938512;29;20423;-76
2022/04/03 10:27:34;;;;;;;2.70;2.20;;;7.20;13.70;;;;;;4939945;29;20388;-74
2022/04/03 10:30:00;;;;;;;4.35;2.80;;;7.30;13.40;;;;;;4939168;29;20387;-76
2022/04/03 10:32:34;;;;;;;4.00;2.20;;;7.30;13.20;;;;;;4940321;29;20423;-76
2022/04/03 10:35:04;;;;;;;2.45;2.20;;;7.20;12.80;;;;;;4939173;29;20428;-76
2022/04/03 10:37:34;;;;;;;4.72;3.30;;;7.70;12.80;;;;;;4940073;29;20396;-75
2022/04/03 10:40:06;;;;;;;8.40;4.10;;;8.10;11.30;;;;;;4938592;29;20423;-76
2022/04/03 10:42:32;;;;;;;7.65;3.58;;;8.20;11.20;;;;;;4940012;29;20394;-77
2022/04/03 10:45:12;;;;;;;4.95;3.00;;;8.30;11.10;;;;;;4938489;29;20392;-76
2022/04/03 10:47:41;;;;;;;4.93;2.47;;;7.60;10.10;;;;;;4938250;29;20388;-76
2022/04/03 10:50:09;;;;;;;3.10;2.25;;;7.10;10.60;;;;;;4941429;29;20730;-76
2022/04/03 10:52:37;;;;;;;2.60;2.00;;;7.10;11.30;;;;;;4941359;29;20407;-76
2022/04/03 10:55:15;;;;;;;4.95;2.20;;;7.10;11.30;;;;;;4958129;29;20481;-76
2022/04/03 10:57:45;;;;;;;2.70;1.90;;;7.10;12.30;;;;;;4958617;29;20764;-76
2022/04/03 11:00:13;;;;;;;2.95;1.88;;;6.80;11.70;;;;;;4959133;29;20452;-76
2022/04/03 11:02:40;;;;;;;2.65;1.90;;;6.70;11.80;;;;;;4958657;28;20416;-76
2022/04/03 11:05:21;;;;;;;2.33;2.00;;;6.60;12.20;;;;;;4957854;29;20386;-76
2022/04/03 11:07:47;;;;;;;4.10;2.10;;;6.60;12.60;;;;;;4958769;29;20385;-76
2022/04/03 11:10:13;;;;;;;3.90;1.97;;;6.90;13.00;;;;;;4958068;29;20405;-76
2022/04/03 11:12:54;;;;;;;3.75;1.90;;;7.10;12.80;;;;;;4941459;28;20409;-76
2022/04/03 11:15:20;;;;;;;3.50;1.60;;;7.40;13.70;;;;;;4959267;29;20925;-75
2022/04/03 11:17:52;;;;;;;3.10;1.60;;;7.70;14.70;;;;;;4959522;29;20406;-75
2022/04/03 11:20:31;;;;;;;3.88;1.73;;;7.80;13.50;;;;;;4959653;29;20523;-75
2022/04/03 11:22:58;;;;;;;4.65;2.20;;;7.70;14.10;;;;;;4965981;28;20557;-76
2022/04/03 11:25:24;;;;;;;6.43;2.22;;;7.70;13.70;;;;;;4971077;29;20398;-75
2022/04/03 11:27:50;;;;;;;4.90;2.50;;;7.60;14.10;;;;;;4961477;29;20413;-75
2022/04/03 11:30:18;;;;;;;2.10;1.90;;;7.70;13.90;;;;;;4958886;29;20424;-76
2022/04/03 11:32:46;;;;;;;4.83;2.50;;;7.80;13.20;;;;;;4957415;28;20493;-76
2022/04/03 11:35:12;;;;;;;3.00;2.57;;;7.80;13.50;;;;;;4940552;29;20508;-75
2022/04/03 11:37:43;;;;;;;4.38;2.42;;;8.20;12.70;;;;;;4958010;29;20768;-76
2022/04/03 11:40:09;;;;;;;5.75;3.40;;;8.60;11.80;;;;;;4957138;29;20406;-76
2022/04/03 11:42:35;;;;;;;3.95;2.70;;;9.10;11.30;;;;;;4940321;28;20401;-77
2022/04/03 11:45:07;;;;;;;6.10;3.13;;;9.30;10.50;;;;;;4958111;29;20899;-75
2022/04/03 11:47:33;;;;;;;2.97;2.50;;;9.70;9.50;;;;;;4958735;29;20477;-76
2022/04/03 11:50:06;;;;;;;6.53;2.80;;;9.70;9.40;;;;;;4958060;29;20783;-75
2022/04/03 11:52:35;;;;;;;4.28;2.60;;;9.90;9.50;;;;;;4943901;28;20432;-77
2022/04/03 11:55:00;;;;;;;8.85;3.22;;;9.90;9.40;;;;;;4941523;29;20403;-75
2022/04/03 11:57:26;;;;;;;3.30;2.70;;;9.80;10.00;;;;;;4937349;29;20492;-75
2022/04/03 11:59:54;;;;;;;4.15;2.88;;;10.00;9.30;;;;;;4937050;29;20722;-73
2022/04/03 12:02:20;;;;;;;4.40;2.28;;;9.80;10.00;;;;;;4938009;29;20403;-75
2022/04/03 12:04:45;;;;;;;4.22;2.17;;;9.40;11.20;;;;;;4940985;29;20757;-75
2022/04/03 12:07:16;;;;;;;4.70;2.30;;;9.50;11.20;;;;;;4940230;29;20400;-75
2022/04/03 12:09:42;;;;;;;3.65;2.30;;;9.70;10.70;;;;;;4937004;29;20401;-74
2022/04/03 12:12:10;;;;;;;2.22;1.90;;;9.90;9.80;;;;;;4936590;29;20391;-74
2022/04/03 12:14:37;;;;;;;5.05;2.40;;;10.20;9.80;;;;;;4936938;29;20396;-75
2022/04/03 12:17:11;;;;;;;4.80;2.13;;;10.20;9.80;;;;;;4936771;29;20419;-74
2022/04/03 12:19:47;;;;;;;4.05;1.88;;;10.10;9.40;;;;;;4936672;29;20391;-75
2022/04/03 12:22:14;;;;;;;3.65;1.95;;;10.40;8.70;;;;;;4936096;29;20788;-74
2022/04/03 12:24:40;;;;;;;5.57;2.30;;;10.20;8.90;;;;;;4936860;29;20387;-74
2022/04/03 12:27:15;;;;;;;3.00;2.10;;;9.90;9.50;;;;;;4936791;29;20822;-74
2022/04/03 12:29:52;;;;;;;2.92;1.80;;;9.90;9.80;;;;;;4936370;29;20403;-74
2022/04/03 12:32:39;;;;;;;4.00;2.00;;;10.40;9.70;;;;;;4935963;29;20394;-74
2022/04/03 12:35:10;;;;;;;3.60;2.30;;;10.90;8.80;;;;;;4936445;29;20473;-75
2022/04/03 12:37:40;;;;;;;4.97;2.15;;;11.00;7.70;;;;;;4936714;29;20435;-75
2022/04/03 12:40:08;;;;;;;2.95;1.90;;;11.20;8.00;;;;;;4935035;29;20459;-74
2022/04/03 12:42:38;;;;;;;4.10;1.70;;;10.60;9.30;;;;;;4935232;29;20411;-73
2022/04/03 12:45:20;;;;;;;3.72;1.80;;;9.70;9.30;;;;;;4936050;29;20391;-74
2022/04/03 12:47:47;;;;;;;4.28;1.70;;;9.60;9.90;;;;;;4934767;29;20404;-74
2022/04/03 12:50:18;;;;;;;3.85;1.90;;;9.70;10.30;;;;;;4935834;29;20387;-74
2022/04/03 12:52:50;;;;;;;7.30;3.40;;;9.30;10.90;;;;;;4935956;29;20415;-74
2022/04/03 12:55:24;;;;;;;4.53;2.20;;;9.20;11.90;;;;;;4935959;29;20451;-74